KADS/ADS METAR and TAF weather

Enter ICAO airport designator
Station Type Date Time Source
KADS METAR 2020/11/25 21:47 UTC NOAA

KADS 252147Z 29007KT 10SM SKC 17/M03 A3005


Station Type Date Time Source
KADS Decoded METAR 2020/11/25 21:47 UTC NOAA

Dallas / Addison Airport, TX, United States (KADS) 32-58N 096-50W
Nov 25, 2020 - 04:47 PM EST / 2020.11.25 2147 UTC
Wind: from the WNW (290 degrees) at 8 MPH (7 KT):0
Visibility: 10 mile(s):0
Sky conditions: clear
Temperature: 62 F (17 C)
Dew Point: 26 F (-3 C)
Relative Humidity: 25%
Pressure (altimeter): 30.05 in. Hg (1017 hPa)
ob: KADS 252147Z 29007KT 10SM SKC 17/M03 A3005
cycle: 22

Station Type Date Time Source
KADS TAF UTC NOAA

Error!

Example: see airport list